createdAt,value
2022-09-04T00:02:40.137Z,59.70
2022-09-04T00:05:17.225Z,59.90
2022-09-04T00:07:58.902Z,59.90
2022-09-04T00:10:32.724Z,59.90
2022-09-04T00:13:07.549Z,60.10
2022-09-04T00:15:41.007Z,60.00
2022-09-04T00:18:16.329Z,60.30
2022-09-04T00:20:49.866Z,60.10
2022-09-04T00:23:22.641Z,60.20
2022-09-04T00:25:58.943Z,60.30
2022-09-04T00:28:36.017Z,60.50
2022-09-04T00:31:25.964Z,60.40
2022-09-04T00:34:07.521Z,61.20
2022-09-04T00:36:40.303Z,60.80
2022-09-04T00:39:13.774Z,62.00
2022-09-04T00:41:57.093Z,61.00
2022-09-04T00:44:41.697Z,61.50
2022-09-04T00:47:51.593Z,61.00
2022-09-04T00:50:55.891Z,61.70
2022-09-04T00:53:42.398Z,61.70
2022-09-04T00:56:39.532Z,61.60
2022-09-04T00:59:19.461Z,61.60
2022-09-04T01:01:48.745Z,61.50
2022-09-04T01:04:32.780Z,61.70
2022-09-04T01:07:31.389Z,61.40
2022-09-04T01:10:21.128Z,61.10
2022-09-04T01:12:56.635Z,61.50
2022-09-04T01:15:32.707Z,61.40
2022-09-04T01:18:07.914Z,61.40
2022-09-04T01:20:56.532Z,61.30
2022-09-04T01:23:43.707Z,61.30
2022-09-04T01:26:22.712Z,61.30
2022-09-04T01:29:07.469Z,61.20
2022-09-04T01:31:44.106Z,61.20
2022-09-04T01:34:28.318Z,61.30
2022-09-04T01:37:01.875Z,61.30
2022-09-04T01:39:34.855Z,61.20
2022-09-04T01:42:10.032Z,61.40
2022-09-04T01:44:38.448Z,61.30
2022-09-04T01:47:16.804Z,61.30
2022-09-04T01:49:49.793Z,61.40
2022-09-04T01:52:37.943Z,61.40
2022-09-04T01:55:15.380Z,61.50
2022-09-04T01:57:59.138Z,61.50
2022-09-04T02:00:34.597Z,61.50
2022-09-04T02:03:15.220Z,61.50
2022-09-04T02:05:56.085Z,61.70
2022-09-04T02:08:36.937Z,61.90
2022-09-04T02:11:12.782Z,61.60
2022-09-04T02:14:02.464Z,61.70
2022-09-04T02:16:42.917Z,62.40
2022-09-04T02:19:27.538Z,61.70
2022-09-04T02:22:05.077Z,61.90
2022-09-04T02:24:40.954Z,62.40
2022-09-04T02:27:14.239Z,62.00
2022-09-04T02:29:50.531Z,63.00
2022-09-04T02:32:23.285Z,62.30
2022-09-04T02:34:58.670Z,62.10
2022-09-04T02:37:35.747Z,62.60
2022-09-04T02:40:12.080Z,62.50
2022-09-04T02:42:50.325Z,62.20
2022-09-04T02:45:26.871Z,62.20
2022-09-04T02:48:04.200Z,62.20
2022-09-04T02:50:49.972Z,62.40
2022-09-04T02:53:31.100Z,62.30
2022-09-04T02:56:14.594Z,62.60
2022-09-04T02:58:54.305Z,62.80
2022-09-04T03:01:30.037Z,62.60
2022-09-04T03:04:06.088Z,63.10
2022-09-04T03:06:50.477Z,62.90
2022-09-04T03:09:25.120Z,62.80
2022-09-04T03:11:59.019Z,62.70
2022-09-04T03:14:34.651Z,63.10
2022-09-04T03:17:10.296Z,62.80
2022-09-04T03:19:48.054Z,62.40
2022-09-04T03:22:23.358Z,62.50
2022-09-04T03:25:13.415Z,62.50
2022-09-04T03:27:42.495Z,62.50
2022-09-04T03:30:12.995Z,62.50
2022-09-04T03:32:52.671Z,62.60
2022-09-04T03:35:30.799Z,62.40
2022-09-04T03:38:19.322Z,62.50
2022-09-04T03:40:54.547Z,62.50
2022-09-04T03:43:34.064Z,62.50
2022-09-04T03:46:18.289Z,62.40
2022-09-04T03:49:07.889Z,62.40
2022-09-04T03:51:46.104Z,62.40
2022-09-04T03:54:35.632Z,63.20
2022-09-04T03:57:19.961Z,62.40
2022-09-04T04:00:03.401Z,62.20
2022-09-04T04:02:44.016Z,62.20
2022-09-04T04:05:27.934Z,62.20
2022-09-04T04:08:13.656Z,62.10
2022-09-04T04:10:55.404Z,62.20
2022-09-04T04:13:42.303Z,62.00
2022-09-04T04:16:27.881Z,62.10
2022-09-04T04:19:11.016Z,62.10
2022-09-04T04:21:55.930Z,62.10
2022-09-04T04:24:40.233Z,62.30
2022-09-04T04:27:21.982Z,62.40
2022-09-04T04:30:06.271Z,62.40
2022-09-04T04:33:11.816Z,62.20
2022-09-04T04:35:46.052Z,62.50
2022-09-04T04:38:28.302Z,62.40
2022-09-04T04:41:22.009Z,62.40
2022-09-04T04:44:04.351Z,62.30
2022-09-04T04:46:47.340Z,62.10
2022-09-04T04:49:37.350Z,62.40
2022-09-04T04:52:22.001Z,62.50
2022-09-04T04:55:11.637Z,62.20
2022-09-04T04:57:54.061Z,62.50
2022-09-04T05:00:30.380Z,62.70
2022-09-04T05:03:09.483Z,62.80
2022-09-04T05:05:58.588Z,62.80
2022-09-04T05:08:36.276Z,62.80
2022-09-04T05:11:15.004Z,62.70
2022-09-04T05:13:53.991Z,62.80
2022-09-04T05:16:30.313Z,62.80
2022-09-04T05:19:03.262Z,62.60
2022-09-04T05:21:37.576Z,62.60
2022-09-04T05:24:14.658Z,62.70
2022-09-04T05:26:52.453Z,62.80
2022-09-04T05:29:32.304Z,62.80
2022-09-04T05:32:09.477Z,63.00
2022-09-04T05:34:54.783Z,62.80
2022-09-04T05:37:28.945Z,62.90
2022-09-04T05:40:05.238Z,63.00
2022-09-04T05:42:45.784Z,62.80
2022-09-04T05:45:26.047Z,63.00
2022-09-04T05:48:10.646Z,63.00
2022-09-04T05:50:55.358Z,62.80
2022-09-04T05:54:00.971Z,63.10
2022-09-04T05:57:03.116Z,62.50
2022-09-04T05:59:51.871Z,63.00
2022-09-04T06:02:41.755Z,63.10
2022-09-04T06:05:25.309Z,63.20
2022-09-04T06:08:09.860Z,63.20
2022-09-04T06:10:50.651Z,63.40
2022-09-04T06:13:45.071Z,63.30
2022-09-04T06:16:33.022Z,63.40
2022-09-04T06:19:44.427Z,63.40
2022-09-04T06:22:36.207Z,63.50
2022-09-04T06:25:21.065Z,63.40
2022-09-04T06:28:16.244Z,63.40
2022-09-04T06:30:51.487Z,63.50
2022-09-04T06:33:45.041Z,63.20
2022-09-04T06:36:33.838Z,63.70
2022-09-04T06:39:28.117Z,63.30
2022-09-04T06:42:12.794Z,63.20
2022-09-04T06:44:55.541Z,63.30
2022-09-04T06:47:36.895Z,63.20
2022-09-04T06:50:20.176Z,63.20
2022-09-04T06:53:04.515Z,63.20
2022-09-04T06:55:42.803Z,63.00
2022-09-04T06:58:30.116Z,63.20
2022-09-04T07:01:08.581Z,63.00
2022-09-04T07:03:49.945Z,63.10
2022-09-04T07:06:27.681Z,63.10
2022-09-04T07:09:15.368Z,63.10
2022-09-04T07:11:57.484Z,63.30
2022-09-04T07:14:43.763Z,63.10
2022-09-04T07:17:18.916Z,63.20
2022-09-04T07:20:14.539Z,62.90
2022-09-04T07:23:12.508Z,62.70
2022-09-04T07:25:49.462Z,62.70
2022-09-04T07:28:48.590Z,62.60
2022-09-04T07:31:24.608Z,62.90
2022-09-04T07:34:00.597Z,62.50
2022-09-04T07:36:35.739Z,62.40
2022-09-04T07:39:15.120Z,62.40
2022-09-04T07:41:50.581Z,62.70
2022-09-04T07:44:24.895Z,62.90
2022-09-04T07:47:01.819Z,63.10
2022-09-04T07:49:37.264Z,63.10
2022-09-04T07:52:17.518Z,63.10
2022-09-04T07:55:02.184Z,63.20
2022-09-04T07:57:46.686Z,63.10
2022-09-04T08:00:18.271Z,63.50
2022-09-04T08:03:25.758Z,63.10
2022-09-04T08:06:01.714Z,63.60
2022-09-04T08:08:52.806Z,63.30
2022-09-04T08:11:55.267Z,63.30
2022-09-04T08:14:53.521Z,63.20
2022-09-04T08:17:43.460Z,63.30
2022-09-04T08:20:28.817Z,63.30
2022-09-04T08:23:06.108Z,63.30
2022-09-04T08:25:52.484Z,63.40
2022-09-04T08:28:36.284Z,63.30
2022-09-04T08:31:10.283Z,63.40
2022-09-04T08:33:55.874Z,63.40
2022-09-04T08:36:31.481Z,63.30
2022-09-04T08:39:07.774Z,63.40
2022-09-04T08:42:12.247Z,63.30
2022-09-04T08:45:27.171Z,63.30
2022-09-04T08:48:33.555Z,63.50
2022-09-04T08:51:34.519Z,63.30
2022-09-04T08:54:36.251Z,63.30
2022-09-04T08:57:43.530Z,63.50
2022-09-04T09:00:15.462Z,63.50
2022-09-04T09:03:20.306Z,63.30
2022-09-04T09:06:38.629Z,63.30
2022-09-04T09:09:41.679Z,63.50
2022-09-04T09:12:52.160Z,63.30
2022-09-04T09:15:53.123Z,63.50
2022-09-04T09:18:40.350Z,63.20
2022-09-04T09:21:12.463Z,63.30
2022-09-04T09:23:58.669Z,62.90
2022-09-04T09:26:29.393Z,63.10
2022-09-04T09:29:44.071Z,62.90
2022-09-04T09:32:48.146Z,62.90
2022-09-04T09:35:58.095Z,62.90
2022-09-04T09:39:12.212Z,62.80
2022-09-04T09:42:10.251Z,62.80
2022-09-04T09:45:01.692Z,62.70
2022-09-04T09:48:09.827Z,62.80
2022-09-04T09:51:04.865Z,62.70
2022-09-04T09:54:12.841Z,62.90
2022-09-04T09:57:14.428Z,62.80
2022-09-04T10:00:13.789Z,62.70
2022-09-04T10:03:14.876Z,62.50
2022-09-04T10:06:44.885Z,62.70
2022-09-04T10:09:46.606Z,62.70
2022-09-04T10:12:46.714Z,62.50
2022-09-04T10:15:46.638Z,62.60
2022-09-04T10:18:48.650Z,62.40
2022-09-04T10:22:05.253Z,62.50
2022-09-04T10:25:06.308Z,62.30
2022-09-04T10:28:11.408Z,62.40
2022-09-04T10:31:03.672Z,62.40
2022-09-04T10:33:45.999Z,62.30
2022-09-04T10:36:23.472Z,62.30
2022-09-04T10:39:26.565Z,62.10
2022-09-04T10:42:06.140Z,62.10
2022-09-04T10:44:46.105Z,62.10
2022-09-04T10:47:29.458Z,62.10
2022-09-04T10:50:18.465Z,62.00
2022-09-04T10:53:20.832Z,62.00
2022-09-04T10:56:05.666Z,61.90
2022-09-04T10:59:11.099Z,62.00
2022-09-04T11:02:04.049Z,61.80
2022-09-04T11:05:07.206Z,61.80
2022-09-04T11:08:00.384Z,62.00
2022-09-04T11:10:39.912Z,61.80
2022-09-04T11:13:51.461Z,61.80
2022-09-04T11:16:38.955Z,61.70
2022-09-04T11:19:32.403Z,61.60
2022-09-04T11:22:47.665Z,61.80
2022-09-04T11:25:47.114Z,61.60
2022-09-04T11:28:51.864Z,61.60
2022-09-04T11:32:21.314Z,61.40
2022-09-04T11:35:26.819Z,61.40
2022-09-04T11:38:09.687Z,61.30
2022-09-04T11:41:29.583Z,61.20
2022-09-04T11:44:29.421Z,61.30
2022-09-04T11:47:21.306Z,61.20
2022-09-04T11:50:00.097Z,61.10
2022-09-04T11:52:52.095Z,61.10
2022-09-04T11:55:52.602Z,61.10
2022-09-04T11:58:41.094Z,61.00
2022-09-04T12:01:38.550Z,61.10
2022-09-04T12:04:40.603Z,61.10
2022-09-04T12:07:24.638Z,60.90
2022-09-04T12:10:09.175Z,60.80
2022-09-04T12:13:15.131Z,60.80
2022-09-04T12:16:13.687Z,60.90
2022-09-04T12:18:57.479Z,60.70
2022-09-04T12:22:05.478Z,60.70
2022-09-04T12:24:56.549Z,60.70
2022-09-04T12:27:57.223Z,60.60
2022-09-04T12:30:29.600Z,60.70
2022-09-04T12:33:32.911Z,60.60
2022-09-04T12:36:34.715Z,60.50
2022-09-04T12:39:32.968Z,60.50
2022-09-04T12:42:08.097Z,60.50
2022-09-04T12:44:51.705Z,60.60
2022-09-04T12:47:33.813Z,60.50
2022-09-04T12:50:33.942Z,60.30
2022-09-04T12:53:25.893Z,60.30
2022-09-04T12:56:03.298Z,60.30
2022-09-04T12:58:48.116Z,60.30
2022-09-04T13:01:32.126Z,60.20
2022-09-04T13:04:09.844Z,60.20
2022-09-04T13:06:53.494Z,60.10
2022-09-04T13:09:29.631Z,60.10
2022-09-04T13:12:10.334Z,60.10
2022-09-04T13:14:59.614Z,60.00
2022-09-04T13:17:42.209Z,60.00
2022-09-04T13:20:21.029Z,60.00
2022-09-04T13:23:07.220Z,60.00
2022-09-04T13:25:53.412Z,60.10
2022-09-04T13:28:33.518Z,60.00
2022-09-04T13:31:34.054Z,60.00
2022-09-04T13:34:13.459Z,59.90
2022-09-04T13:36:55.546Z,59.90
2022-09-04T13:39:44.861Z,59.80
2022-09-04T13:42:58.069Z,59.80
2022-09-04T13:45:31.788Z,59.80
2022-09-04T13:48:05.739Z,59.70
2022-09-04T13:50:38.703Z,59.70
2022-09-04T13:53:16.384Z,59.70
2022-09-04T13:55:50.874Z,59.70
2022-09-04T13:58:21.185Z,59.70
2022-09-04T14:00:53.686Z,59.70
2022-09-04T14:03:34.692Z,59.70
2022-09-04T14:06:05.693Z,59.60
2022-09-04T14:08:34.911Z,59.60
2022-09-04T14:11:39.493Z,59.50
2022-09-04T14:14:48.744Z,59.50
2022-09-04T14:17:27.201Z,59.60
2022-09-04T14:20:04.550Z,59.50
2022-09-04T14:22:46.234Z,59.50
2022-09-04T14:25:20.413Z,59.40
2022-09-04T14:27:58.829Z,59.40
2022-09-04T14:30:29.900Z,59.40
2022-09-04T14:33:18.983Z,59.40
2022-09-04T14:36:00.020Z,59.30
2022-09-04T14:38:56.694Z,59.40
2022-09-04T14:41:39.816Z,59.40
2022-09-04T14:44:25.093Z,59.40
2022-09-04T14:47:09.822Z,59.40
2022-09-04T14:49:47.246Z,59.30
2022-09-04T14:52:20.275Z,59.30
2022-09-04T14:54:54.184Z,59.30
2022-09-04T14:57:28.352Z,59.20
2022-09-04T15:00:11.615Z,59.30
2022-09-04T15:02:46.824Z,59.30
2022-09-04T15:05:23.655Z,59.30
2022-09-04T15:07:56.378Z,59.30
2022-09-04T15:10:29.386Z,59.30
2022-09-04T15:13:22.793Z,59.30
2022-09-04T15:15:54.978Z,59.30
2022-09-04T15:18:30.589Z,59.30
2022-09-04T15:21:05.061Z,60.00
2022-09-04T15:23:40.819Z,59.30
2022-09-04T15:26:13.952Z,59.20
2022-09-04T15:28:48.645Z,59.20
2022-09-04T15:31:20.375Z,59.30
2022-09-04T15:33:50.685Z,59.30
2022-09-04T15:36:24.100Z,59.30
2022-09-04T15:38:55.328Z,59.30
2022-09-04T15:41:36.729Z,59.30
2022-09-04T15:44:16.746Z,59.20
2022-09-04T15:46:51.528Z,59.20
2022-09-04T15:49:28.282Z,59.20
2022-09-04T15:52:10.409Z,59.20
2022-09-04T15:55:10.215Z,59.20
2022-09-04T15:57:50.897Z,59.20
2022-09-04T16:00:24.353Z,59.20
2022-09-04T16:02:59.132Z,59.20
2022-09-04T16:05:41.463Z,59.20
2022-09-04T16:08:21.668Z,59.80
2022-09-04T16:10:58.665Z,59.10
2022-09-04T16:13:58.075Z,59.10
2022-09-04T16:16:31.346Z,59.10
2022-09-04T16:19:20.945Z,59.10
2022-09-04T16:22:00.268Z,59.00
2022-09-04T16:24:41.596Z,59.00
2022-09-04T16:27:13.838Z,59.70
2022-09-04T16:29:48.611Z,59.00
2022-09-04T16:32:22.565Z,59.00
2022-09-04T16:34:55.749Z,59.00
2022-09-04T16:37:31.571Z,59.00
2022-09-04T16:40:12.590Z,59.00
2022-09-04T16:42:47.272Z,59.00
2022-09-04T16:45:21.799Z,59.00
2022-09-04T16:47:55.815Z,59.00
2022-09-04T16:50:29.511Z,59.10
2022-09-04T16:53:14.168Z,59.10
2022-09-04T16:55:50.836Z,59.00
2022-09-04T16:58:35.537Z,59.00
2022-09-04T17:01:14.495Z,59.10
2022-09-04T17:04:13.268Z,59.00
2022-09-04T17:06:54.444Z,59.00
2022-09-04T17:09:29.438Z,59.00
2022-09-04T17:12:03.943Z,58.90
2022-09-04T17:14:38.491Z,58.90
2022-09-04T17:17:30.121Z,59.00
2022-09-04T17:20:06.583Z,58.90
2022-09-04T17:28:54.109Z,59.00
2022-09-04T17:29:19.624Z,59.00
2022-09-04T17:29:22.445Z,58.90
2022-09-04T17:31:35.526Z,59.00
2022-09-04T17:40:32.386Z,59.00
2022-09-04T17:40:43.404Z,59.00
2022-09-04T17:40:55.717Z,59.10
2022-09-04T17:43:22.161Z,59.10
2022-09-04T17:46:06.835Z,59.10
2022-09-04T17:48:42.045Z,59.00
2022-09-04T17:51:18.255Z,59.00
2022-09-04T17:53:52.934Z,59.10
2022-09-04T17:56:28.785Z,59.10
2022-09-04T17:59:03.167Z,59.10
2022-09-04T18:01:38.326Z,59.00
2022-09-04T18:04:22.043Z,59.20
2022-09-04T18:06:56.938Z,59.20
2022-09-04T18:09:32.421Z,59.10
2022-09-04T18:12:11.687Z,59.10
2022-09-04T18:15:22.426Z,59.10
2022-09-04T18:17:50.187Z,59.20
2022-09-04T18:20:28.998Z,59.20
2022-09-04T18:23:24.066Z,59.20
2022-09-04T18:25:57.642Z,59.20
2022-09-04T18:28:33.840Z,59.30
2022-09-04T18:37:12.133Z,59.30
2022-09-04T18:37:18.385Z,59.40
2022-09-04T18:37:46.516Z,59.30
2022-09-04T18:40:07.125Z,59.30
2022-09-04T18:46:41.338Z,59.30
2022-09-04T18:50:28.924Z,59.30
2022-09-04T18:50:52.244Z,59.30
2022-09-04T18:51:31.276Z,59.40
2022-09-04T18:54:08.532Z,59.30
2022-09-04T18:56:44.642Z,59.50
2022-09-04T18:59:19.681Z,59.50
2022-09-04T19:01:56.707Z,59.50
2022-09-04T19:04:47.730Z,59.40
2022-09-04T19:07:28.956Z,59.50
2022-09-04T19:10:10.424Z,59.50
2022-09-04T19:12:56.427Z,59.60
2022-09-04T19:15:50.495Z,59.50
2022-09-04T19:18:27.093Z,59.60
2022-09-04T19:21:15.150Z,59.70
2022-09-04T19:23:49.118Z,59.70
2022-09-04T19:26:26.886Z,59.70
2022-09-04T19:29:00.713Z,59.60
2022-09-04T19:31:38.803Z,59.60
2022-09-04T19:34:18.872Z,59.60
2022-09-04T19:36:54.298Z,59.70
2022-09-04T19:46:05.992Z,59.80
2022-09-04T19:46:07.744Z,59.70
2022-09-04T19:46:18.033Z,59.70
2022-09-04T19:48:29.065Z,59.70
2022-09-04T19:53:32.275Z,59.90
2022-09-04T19:54:03.464Z,59.90
2022-09-04T19:56:42.326Z,59.80
2022-09-04T19:59:28.861Z,59.80
2022-09-04T20:02:02.989Z,59.80
2022-09-04T20:04:41.451Z,59.80
2022-09-04T20:07:13.946Z,60.00
2022-09-04T20:09:49.640Z,59.80
2022-09-04T20:12:25.054Z,59.80
2022-09-04T20:14:57.248Z,59.80
2022-09-04T20:17:59.907Z,60.00
2022-09-04T20:20:38.942Z,60.10
2022-09-04T20:23:34.460Z,60.30
2022-09-04T20:26:10.612Z,60.10
2022-09-04T20:28:50.908Z,60.10
2022-09-04T20:31:36.839Z,60.10
2022-09-04T20:34:16.784Z,60.10
2022-09-04T20:36:51.353Z,60.50
2022-09-04T20:39:24.805Z,61.00
2022-09-04T20:41:59.758Z,61.10
2022-09-04T20:44:44.477Z,61.50
2022-09-04T20:52:41.852Z,60.90
2022-09-04T20:52:55.661Z,61.50
2022-09-04T20:53:29.386Z,61.00
2022-09-04T20:56:10.754Z,61.10
2022-09-04T21:03:06.345Z,61.00
2022-09-04T21:03:19.611Z,61.40
2022-09-04T21:04:55.935Z,61.10
2022-09-04T21:07:31.283Z,61.20
2022-09-04T21:10:10.484Z,61.00
2022-09-04T21:12:45.031Z,61.00
2022-09-04T21:15:40.160Z,60.80
2022-09-04T21:18:26.343Z,60.80
2022-09-04T21:21:17.041Z,61.00
2022-09-04T21:24:23.655Z,61.20
2022-09-04T21:27:20.494Z,60.80
2022-09-04T21:30:02.909Z,62.20
2022-09-04T21:33:04.117Z,60.90
2022-09-04T21:35:55.637Z,60.90
2022-09-04T21:39:02.608Z,60.60
2022-09-04T21:41:47.791Z,61.00
2022-09-04T21:44:52.135Z,60.70
2022-09-04T21:47:44.742Z,61.30
2022-09-04T21:50:58.771Z,61.00
2022-09-04T21:54:00.844Z,61.00
2022-09-04T22:02:29.569Z,61.10
2022-09-04T22:02:37.960Z,60.80
2022-09-04T22:03:30.449Z,61.20
2022-09-04T22:06:11.136Z,60.70
2022-09-04T22:13:29.712Z,60.80
2022-09-04T22:13:42.210Z,60.40
2022-09-04T22:14:51.090Z,61.00
2022-09-04T22:17:45.178Z,61.00
2022-09-04T22:20:43.357Z,60.70
2022-09-04T22:24:01.549Z,61.10
2022-09-04T22:26:52.499Z,60.50
2022-09-04T22:29:40.492Z,60.70
2022-09-04T22:32:47.528Z,60.70
2022-09-04T22:35:52.056Z,61.10
2022-09-04T22:38:32.752Z,60.80
2022-09-04T22:41:19.452Z,60.70
2022-09-04T22:43:59.052Z,60.60
2022-09-04T22:46:52.563Z,60.50
2022-09-04T22:49:48.579Z,60.70
2022-09-04T22:52:49.326Z,61.00
2022-09-04T22:56:03.869Z,60.90
2022-09-04T22:58:43.574Z,61.10
2022-09-04T23:01:36.772Z,61.10
2022-09-04T23:04:24.453Z,60.70
2022-09-04T23:13:03.370Z,60.90
2022-09-04T23:13:56.458Z,60.70
2022-09-04T23:14:00.282Z,61.20
2022-09-04T23:16:59.494Z,61.20
2022-09-04T23:26:05.645Z,60.80
2022-09-04T23:26:41.909Z,61.20
2022-09-04T23:26:43.774Z,61.40
2022-09-04T23:29:16.096Z,61.20
2022-09-04T23:32:16.731Z,61.40
2022-09-04T23:35:14.234Z,60.90
2022-09-04T23:38:00.012Z,60.80
2022-09-04T23:40:39.323Z,61.90
2022-09-04T23:43:58.626Z,61.60
2022-09-04T23:46:56.577Z,61.60
2022-09-04T23:50:00.925Z,61.40
2022-09-04T23:52:49.124Z,62.20
2022-09-04T23:55:37.292Z,61.70
2022-09-04T23:58:51.893Z,61.90
